createdAt,value
2019-04-16T00:02:38.815Z,100866.78
2019-04-16T00:05:17.227Z,100861.28
2019-04-16T00:07:55.627Z,100864.66
2019-04-16T00:10:43.813Z,100856.72
2019-04-16T00:13:24.025Z,100852.24
2019-04-16T00:15:54.837Z,100847.11
2019-04-16T00:18:25.489Z,100843.58
2019-04-16T00:21:30.804Z,100842.39
2019-04-16T00:24:20.073Z,100837.70
2019-04-16T00:26:52.459Z,100838.86
2019-04-16T00:29:22.874Z,100835.14
2019-04-16T00:31:59.656Z,100832.45
2019-04-16T00:34:30.071Z,100837.05
2019-04-16T00:37:00.570Z,100834.51
2019-04-16T00:39:30.971Z,100827.04
2019-04-16T00:42:01.738Z,100827.28
2019-04-16T00:44:32.140Z,100822.73
2019-04-16T00:47:02.894Z,100825.06
2019-04-16T00:49:33.295Z,100821.30
2019-04-16T00:52:06.775Z,100822.48
2019-04-16T00:54:36.514Z,100824.73
2019-04-16T00:57:06.897Z,100820.10
2019-04-16T00:59:37.325Z,100821.59
2019-04-16T01:02:07.822Z,100825.85
2019-04-16T01:04:38.153Z,100822.45
2019-04-16T01:07:08.556Z,100825.22
2019-04-16T01:09:38.963Z,100830.73
2019-04-16T01:12:10.029Z,100827.72
2019-04-16T01:14:40.373Z,100826.84
2019-04-16T01:17:11.153Z,100820.83
2019-04-16T01:19:41.947Z,100824.63
2019-04-16T01:22:15.984Z,100825.16
2019-04-16T01:24:51.538Z,100822.30
2019-04-16T01:27:21.135Z,100823.63
2019-04-16T01:29:52.278Z,100830.61
2019-04-16T01:32:42.735Z,100825.25
2019-04-16T01:35:40.976Z,100818.97
2019-04-16T01:38:36.184Z,100824.75
2019-04-16T01:41:09.288Z,100827.27
2019-04-16T01:43:39.753Z,100818.09
2019-04-16T01:46:10.157Z,100814.86
2019-04-16T01:48:41.218Z,100816.72
2019-04-16T01:51:12.606Z,100823.31
2019-04-16T01:53:43.853Z,100817.98
2019-04-16T01:56:14.399Z,100820.88
2019-04-16T01:58:44.989Z,100818.50
2019-04-16T02:01:15.414Z,100819.64
2019-04-16T02:03:48.928Z,100819.95
2019-04-16T02:06:18.525Z,100824.32
2019-04-16T02:08:48.967Z,100821.45
2019-04-16T02:11:19.281Z,100823.66
2019-04-16T02:13:49.605Z,100819.69
2019-04-16T02:16:22.393Z,100822.61
2019-04-16T02:18:52.500Z,100815.12
2019-04-16T02:21:23.189Z,100822.43
2019-04-16T02:23:53.756Z,100822.55
2019-04-16T02:26:24.273Z,100824.72
2019-04-16T02:28:56.465Z,100825.33
2019-04-16T02:31:27.080Z,100831.97
2019-04-16T02:33:57.690Z,100830.69
2019-04-16T02:36:28.114Z,100832.75
2019-04-16T02:38:58.884Z,100837.80
2019-04-16T02:41:29.554Z,100833.56
2019-04-16T02:43:59.910Z,100830.31
2019-04-16T02:46:32.409Z,100830.64
2019-04-16T02:49:02.424Z,100829.94
2019-04-16T02:51:57.483Z,100828.47
2019-04-16T02:54:44.571Z,100832.08
2019-04-16T02:57:52.446Z,100830.44
2019-04-16T03:00:36.778Z,100827.95
2019-04-16T03:03:10.856Z,100828.82
2019-04-16T03:05:43.505Z,100825.95
2019-04-16T03:08:13.882Z,100820.39
2019-04-16T03:10:45.365Z,100818.82
2019-04-16T03:13:16.370Z,100817.56
2019-04-16T03:16:06.278Z,100816.92
2019-04-16T03:18:47.401Z,100821.83
2019-04-16T03:21:17.192Z,100815.48
2019-04-16T03:23:47.549Z,100814.77
2019-04-16T03:26:18.396Z,100816.31
2019-04-16T03:28:49.066Z,100812.91
2019-04-16T03:31:23.164Z,100812.35
2019-04-16T03:33:51.973Z,100815.40
2019-04-16T03:36:22.370Z,100814.78
2019-04-16T03:38:52.807Z,100808.95
2019-04-16T03:41:24.912Z,100815.63
2019-04-16T03:43:55.267Z,100814.52
2019-04-16T03:46:25.658Z,100815.52
2019-04-16T03:48:56.539Z,100819.91
2019-04-16T03:51:26.842Z,100815.23
2019-04-16T03:53:57.240Z,100818.81
2019-04-16T03:56:30.592Z,100813.70
2019-04-16T03:59:00.249Z,100812.89
2019-04-16T04:01:30.628Z,100824.52
2019-04-16T04:04:01.337Z,100822.64
2019-04-16T04:06:32.187Z,100816.91
2019-04-16T04:09:02.582Z,100826.19
2019-04-16T04:11:33.058Z,100824.63
2019-04-16T04:14:03.845Z,100820.64
2019-04-16T04:16:34.594Z,100822.93
2019-04-16T04:19:05.033Z,100820.66
2019-04-16T04:21:35.399Z,100813.70
2019-04-16T04:24:05.796Z,100814.94
2019-04-16T04:26:41.081Z,100820.91
2019-04-16T04:29:08.224Z,100822.60
2019-04-16T04:31:38.805Z,100829.83
2019-04-16T04:34:10.717Z,100830.59
2019-04-16T04:36:42.252Z,100828.64
2019-04-16T04:39:15.253Z,100826.46
2019-04-16T04:41:46.430Z,100825.60
2019-04-16T04:44:18.801Z,100822.17
2019-04-16T04:46:53.937Z,100828.53
2019-04-16T04:49:24.479Z,100826.84
2019-04-16T04:52:00.554Z,100822.79
2019-04-16T04:54:30.914Z,100818.55
2019-04-16T04:57:01.603Z,100819.20
2019-04-16T04:59:36.479Z,100817.27
2019-04-16T05:02:04.163Z,100811.69
2019-04-16T05:04:44.956Z,100817.63
2019-04-16T05:07:15.803Z,100810.58
2019-04-16T05:09:46.210Z,100810.55
2019-04-16T05:12:17.821Z,100815.30
2019-04-16T05:14:58.423Z,100816.61
2019-04-16T05:17:29.620Z,100809.07
2019-04-16T05:20:00.026Z,100808.58
2019-04-16T05:22:32.994Z,100808.88
2019-04-16T05:25:05.974Z,100804.92
2019-04-16T05:27:40.253Z,100804.50
2019-04-16T05:30:08.656Z,100804.30
2019-04-16T05:32:39.113Z,100790.83
2019-04-16T05:35:10.816Z,100799.39
2019-04-16T05:37:43.448Z,100799.72
2019-04-16T05:40:14.539Z,100796.84
2019-04-16T05:42:45.029Z,100794.53
2019-04-16T05:45:20.775Z,100792.52
2019-04-16T05:48:00.242Z,100807.34
2019-04-16T05:50:30.755Z,100804.66
2019-04-16T05:53:01.206Z,100813.23
2019-04-16T05:55:57.744Z,100814.07
2019-04-16T05:59:12.304Z,100816.80
2019-04-16T06:01:57.322Z,100815.39
2019-04-16T06:07:42.236Z,100820.39
2019-04-16T06:10:17.113Z,100820.45
2019-04-16T06:13:20.092Z,100821.71
2019-04-16T06:16:14.439Z,100823.84
2019-04-16T06:19:46.484Z,100827.15
2019-04-16T06:22:39.796Z,100821.22
2019-04-16T06:25:33.707Z,100819.09
2019-04-16T06:28:27.995Z,100823.19
2019-04-16T06:31:29.559Z,100821.31
2019-04-16T06:34:15.101Z,100823.32
2019-04-16T06:37:11.309Z,100827.09
2019-04-16T06:40:07.109Z,100817.63
2019-04-16T06:42:43.038Z,100819.87
2019-04-16T06:45:21.650Z,100822.64
2019-04-16T06:48:03.896Z,100829.82
2019-04-16T06:50:47.153Z,100820.50
2019-04-16T06:53:41.244Z,100830.86
2019-04-16T06:56:40.390Z,100825.55
2019-04-16T06:59:17.895Z,100830.09
2019-04-16T07:02:11.252Z,100821.58
2019-04-16T07:05:07.697Z,100813.11
2019-04-16T07:08:07.890Z,100815.02
2019-04-16T07:10:44.601Z,100812.05
2019-04-16T07:13:16.054Z,100812.91
2019-04-16T07:15:47.102Z,100814.95
2019-04-16T07:18:21.166Z,100807.70
2019-04-16T07:20:52.127Z,100823.87
2019-04-16T07:23:24.772Z,100822.14
2019-04-16T07:25:57.789Z,100814.16
2019-04-16T07:28:45.218Z,100819.08
2019-04-16T07:31:33.238Z,100814.05
2019-04-16T07:34:29.489Z,100813.67
2019-04-16T07:37:15.071Z,100814.39
2019-04-16T07:40:10.274Z,100808.12
2019-04-16T07:43:10.502Z,100809.37
2019-04-16T07:45:50.396Z,100811.38
2019-04-16T07:48:41.851Z,100812.50
2019-04-16T07:51:23.452Z,100812.12
2019-04-16T07:54:21.732Z,100808.54
2019-04-16T07:56:58.431Z,100800.02
2019-04-16T07:59:31.994Z,100802.03
2019-04-16T08:02:05.031Z,100805.14
2019-04-16T08:04:36.394Z,100814.19
2019-04-16T08:07:07.213Z,100804.86
2019-04-16T08:09:37.652Z,100810.61
2019-04-16T08:12:32.337Z,100811.35
2019-04-16T08:15:13.361Z,100804.36
2019-04-16T08:17:39.851Z,100808.54
2019-04-16T08:20:10.742Z,100806.91
2019-04-16T08:22:47.331Z,100807.45
2019-04-16T08:25:33.703Z,100796.69
2019-04-16T08:28:02.591Z,100803.55
2019-04-16T08:30:39.279Z,100797.58
2019-04-16T08:33:12.089Z,100802.74
2019-04-16T08:35:55.613Z,100805.38
2019-04-16T08:38:26.460Z,100808.34
2019-04-16T08:40:57.161Z,100810.41
2019-04-16T08:43:29.607Z,100803.73
2019-04-16T08:46:00.160Z,100806.78
2019-04-16T08:48:33.556Z,100799.22
2019-04-16T08:51:05.318Z,100794.17
2019-04-16T08:53:36.197Z,100797.06
2019-04-16T08:56:06.705Z,100798.31
2019-04-16T08:58:38.401Z,100795.16
2019-04-16T09:01:18.709Z,100795.28
2019-04-16T09:03:52.196Z,100794.50
2019-04-16T09:06:27.153Z,100797.20
2019-04-16T09:09:24.760Z,100792.48
2019-04-16T09:12:08.914Z,100797.35
2019-04-16T09:14:42.581Z,100794.05
2019-04-16T09:17:33.105Z,100801.45
2019-04-16T09:20:27.040Z,100798.06
2019-04-16T09:23:02.961Z,100800.98
2019-04-16T09:26:14.115Z,100797.39
2019-04-16T09:28:51.639Z,100793.55
2019-04-16T09:31:44.110Z,100795.48
2019-04-16T09:34:32.465Z,100793.20
2019-04-16T09:37:21.426Z,100792.41
2019-04-16T09:40:28.534Z,100785.06
2019-04-16T09:43:16.066Z,100781.44
2019-04-16T09:45:37.193Z,100788.63
2019-04-16T09:48:10.433Z,100788.72
2019-04-16T09:50:47.872Z,100789.37
2019-04-16T09:53:32.632Z,100790.19
2019-04-16T09:55:59.580Z,100784.16
2019-04-16T09:58:30.337Z,100786.53
2019-04-16T10:01:07.057Z,100790.20
2019-04-16T10:03:40.642Z,100781.98
2019-04-16T10:06:11.223Z,100790.80
2019-04-16T10:08:49.862Z,100782.64
2019-04-16T10:11:20.541Z,100787.54
2019-04-16T10:13:53.381Z,100781.53
2019-04-16T10:16:25.896Z,100786.94
2019-04-16T10:19:01.051Z,100783.80
2019-04-16T10:21:31.958Z,100776.52
2019-04-16T10:24:23.238Z,100783.41
2019-04-16T10:26:57.014Z,100779.37
2019-04-16T10:29:53.467Z,100779.40
2019-04-16T10:32:21.319Z,100768.39
2019-04-16T10:34:52.658Z,100773.98
2019-04-16T10:37:23.663Z,100772.83
2019-04-16T10:40:05.293Z,100777.56
2019-04-16T10:42:53.542Z,100760.82
2019-04-16T10:45:45.616Z,100762.98
2019-04-16T10:48:34.263Z,100767.48
2019-04-16T10:51:35.862Z,100765.52
2019-04-16T10:54:33.788Z,100766.63
2019-04-16T10:57:18.115Z,100758.14
2019-04-16T11:00:02.249Z,100757.61
2019-04-16T11:02:39.176Z,100760.93
2019-04-16T11:05:32.352Z,100764.06
2019-04-16T11:08:07.545Z,100753.73
2019-04-16T11:10:40.789Z,100751.98
2019-04-16T11:13:26.271Z,100745.73
2019-04-16T11:16:01.460Z,100753.09
2019-04-16T11:18:31.929Z,100748.39
2019-04-16T11:21:02.341Z,100735.48
2019-04-16T11:23:34.230Z,100740.56
2019-04-16T11:26:05.011Z,100740.26
2019-04-16T11:28:36.737Z,100740.92
2019-04-16T11:31:11.853Z,100730.28
2019-04-16T11:33:47.675Z,100746.31
2019-04-16T11:36:20.729Z,100746.25
2019-04-16T11:38:52.217Z,100742.57
2019-04-16T11:41:22.944Z,100737.03
2019-04-16T11:44:15.250Z,100728.87
2019-04-16T11:46:40.475Z,100734.56
2019-04-16T11:49:27.111Z,100731.87
2019-04-16T11:51:57.650Z,100733.59
2019-04-16T11:54:28.813Z,100734.20
2019-04-16T11:57:02.997Z,100735.13
2019-04-16T11:59:33.905Z,100739.25
2019-04-16T12:02:11.119Z,100743.91
2019-04-16T12:05:00.251Z,100734.69
2019-04-16T12:07:47.149Z,100736.30
2019-04-16T12:10:35.986Z,100731.73
2019-04-16T12:13:24.507Z,100729.52
2019-04-16T12:16:17.233Z,100726.86
2019-04-16T12:19:13.223Z,100727.27
2019-04-16T12:22:15.241Z,100728.57
2019-04-16T12:24:57.187Z,100719.09
2019-04-16T12:27:45.564Z,100720.72
2019-04-16T12:30:40.555Z,100714.78
2019-04-16T12:33:46.117Z,100705.13
2019-04-16T12:36:25.734Z,100697.69
2019-04-16T12:39:08.170Z,100700.98
2019-04-16T12:41:59.998Z,100705.20
2019-04-16T12:45:02.248Z,100708.23
2019-04-16T12:48:00.283Z,100692.36
2019-04-16T12:50:39.375Z,100699.36
2019-04-16T12:53:19.468Z,100706.80
2019-04-16T12:56:10.749Z,100699.99
2019-04-16T12:59:12.146Z,100695.81
2019-04-16T13:01:58.507Z,100705.41
2019-04-16T13:04:58.072Z,100696.52
2019-04-16T13:08:31.439Z,100695.83
2019-04-16T13:11:19.793Z,100691.22
2019-04-16T13:14:12.002Z,100703.85
2019-04-16T13:17:01.984Z,100693.91
2019-04-16T13:19:56.534Z,100687.86
2019-04-16T13:22:33.265Z,100682.74
2019-04-16T13:25:15.963Z,100688.21
2019-04-16T13:27:50.826Z,100688.94
2019-04-16T13:30:23.998Z,100690.09
2019-04-16T13:33:18.443Z,100690.55
2019-04-16T13:35:50.858Z,100689.64
2019-04-16T13:38:24.603Z,100692.48
2019-04-16T13:40:55.347Z,100676.83
2019-04-16T13:43:36.872Z,100678.11
2019-04-16T13:46:18.361Z,100674.77
2019-04-16T13:49:11.235Z,100679.25
2019-04-16T13:51:47.778Z,100672.16
2019-04-16T13:54:34.076Z,100680.63
2019-04-16T13:57:06.464Z,100677.70
2019-04-16T13:59:56.105Z,100681.45
2019-04-16T14:02:32.671Z,100674.28
2019-04-16T14:05:09.978Z,100679.30
2019-04-16T14:07:42.263Z,100668.97
2019-04-16T14:10:13.332Z,100672.70
2019-04-16T14:12:46.048Z,100671.00
2019-04-16T14:15:32.131Z,100668.98
2019-04-16T14:18:00.759Z,100664.30
2019-04-16T14:20:31.565Z,100675.00
2019-04-16T14:23:04.453Z,100672.37
2019-04-16T14:25:37.232Z,100680.97
2019-04-16T14:28:08.115Z,100677.40
2019-04-16T14:30:44.240Z,100675.83
2019-04-16T14:33:20.639Z,100680.83
2019-04-16T14:35:52.181Z,100676.97
2019-04-16T14:38:35.152Z,100682.67
2019-04-16T14:41:19.961Z,100673.56
2019-04-16T14:44:02.548Z,100674.78
2019-04-16T14:46:32.217Z,100677.03
2019-04-16T14:49:02.608Z,100673.11
2019-04-16T14:51:33.240Z,100674.98
2019-04-16T14:54:21.554Z,100677.92
2019-04-16T14:56:54.813Z,100681.66
2019-04-16T14:59:47.102Z,100679.66
2019-04-16T15:02:34.816Z,100682.07
2019-04-16T15:05:24.554Z,100677.58
2019-04-16T15:08:14.277Z,100680.79
2019-04-16T15:11:07.820Z,100686.33
2019-04-16T15:13:44.869Z,100684.23
2019-04-16T15:16:43.511Z,100681.59
2019-04-16T15:19:26.848Z,100684.61
2019-04-16T15:22:18.072Z,100691.02
2019-04-16T15:25:10.682Z,100693.95
2019-04-16T15:27:49.858Z,100687.67
2019-04-16T15:30:37.936Z,100687.85
2019-04-16T15:33:31.934Z,100692.30
2019-04-16T15:36:07.585Z,100697.52
2019-04-16T15:38:43.548Z,100693.78
2019-04-16T15:41:27.410Z,100700.48
2019-04-16T15:44:11.157Z,100694.55
2019-04-16T15:47:07.140Z,100704.70
2019-04-16T15:49:49.662Z,100695.46
2019-04-16T15:52:53.115Z,100707.21
2019-04-16T15:55:49.757Z,100705.41
2019-04-16T15:58:43.274Z,100704.61
2019-04-16T16:01:31.300Z,100703.86
2019-04-16T16:04:17.422Z,100706.25
2019-04-16T16:06:52.289Z,100703.15
2019-04-16T16:09:26.732Z,100703.55
2019-04-16T16:12:09.909Z,100704.02
2019-04-16T16:14:39.334Z,100717.71
2019-04-16T16:17:10.506Z,100713.32
2019-04-16T16:19:41.239Z,100716.16
2019-04-16T16:22:16.428Z,100722.27
2019-04-16T16:24:51.068Z,100721.64
2019-04-16T16:27:28.629Z,100728.78
2019-04-16T16:30:05.515Z,100723.45
2019-04-16T16:32:36.162Z,100728.18
2019-04-16T16:35:09.140Z,100724.48
2019-04-16T16:37:40.454Z,100727.02
2019-04-16T16:40:15.200Z,100724.20
2019-04-16T16:42:45.925Z,100723.96
2019-04-16T16:45:16.827Z,100726.05
2019-04-16T16:47:48.038Z,100726.82
2019-04-16T16:50:20.238Z,100728.53
2019-04-16T16:53:28.164Z,100730.09
2019-04-16T16:56:04.252Z,100735.09
2019-04-16T16:58:58.240Z,100738.14
2019-04-16T17:01:48.592Z,100743.69
2019-04-16T17:04:26.330Z,100740.12
2019-04-16T17:07:01.210Z,100743.28
2019-04-16T17:09:39.515Z,100738.92
2019-04-16T17:12:17.850Z,100740.19
2019-04-16T17:14:52.274Z,100737.18
2019-04-16T17:17:26.124Z,100742.21
2019-04-16T17:19:59.457Z,100742.18
2019-04-16T17:22:33.448Z,100743.59
2019-04-16T17:25:04.003Z,100742.55
2019-04-16T17:27:50.304Z,100745.73
2019-04-16T17:30:08.439Z,100751.86
2019-04-16T17:32:38.973Z,100748.08
2019-04-16T17:35:14.421Z,100747.88
2019-04-16T17:37:42.747Z,100751.46
2019-04-16T17:40:25.584Z,100751.52
2019-04-16T17:43:03.237Z,100759.51
2019-04-16T17:45:55.932Z,100755.86
2019-04-16T17:48:47.752Z,100762.26
2019-04-16T17:51:28.084Z,100766.98
2019-04-16T17:54:26.144Z,100770.41
2019-04-16T17:57:14.674Z,100770.03
2019-04-16T18:00:00.787Z,100777.19
2019-04-16T18:03:02.997Z,100776.84
2019-04-16T18:05:46.665Z,100780.64
2019-04-16T18:08:41.412Z,100783.13
2019-04-16T18:11:19.984Z,100794.08
2019-04-16T18:14:11.544Z,100794.77
2019-04-16T18:17:18.092Z,100791.92
2019-04-16T18:20:04.026Z,100801.98
2019-04-16T18:22:45.792Z,100813.16
2019-04-16T18:25:38.314Z,100816.53
2019-04-16T18:28:32.194Z,100818.93
2019-04-16T18:31:11.392Z,100821.66
2019-04-16T18:34:09.238Z,100823.87
2019-04-16T18:36:56.406Z,100823.11
2019-04-16T18:39:51.360Z,100827.36
2019-04-16T18:42:32.929Z,100830.42
2019-04-16T18:45:42.951Z,100836.92
2019-04-16T18:48:20.092Z,100838.03
2019-04-16T18:50:50.725Z,100842.81
2019-04-16T18:53:21.503Z,100850.24
2019-04-16T18:55:52.380Z,100851.27
2019-04-16T18:58:23.295Z,100863.27
2019-04-16T19:01:00.462Z,100857.98
2019-04-16T19:03:32.734Z,100854.67
2019-04-16T19:06:03.130Z,100864.07
2019-04-16T19:08:41.486Z,100864.89
2019-04-16T19:11:06.193Z,100873.88
2019-04-16T19:13:36.631Z,100884.28
2019-04-16T19:16:07.005Z,100883.61
2019-04-16T19:18:37.420Z,100887.01
2019-04-16T19:21:07.853Z,100884.21
2019-04-16T19:23:38.354Z,100887.72
2019-04-16T19:26:08.778Z,100887.84
2019-04-16T19:28:40.366Z,100887.42
2019-04-16T19:31:11.214Z,100889.33
2019-04-16T19:33:41.735Z,100889.70
2019-04-16T19:36:12.282Z,100891.84
2019-04-16T19:38:42.839Z,100893.43
2019-04-16T19:41:13.627Z,100897.65
2019-04-16T19:43:46.225Z,100897.19
2019-04-16T19:46:16.751Z,100901.37
2019-04-16T19:48:49.210Z,100902.38
2019-04-16T19:51:20.325Z,100907.07
2019-04-16T19:53:53.925Z,100905.53
2019-04-16T19:56:33.608Z,100907.48
2019-04-16T19:59:05.352Z,100913.25
2019-04-16T20:01:36.157Z,100914.09
2019-04-16T20:04:10.644Z,100916.69
2019-04-16T20:06:40.757Z,100918.22
2019-04-16T20:09:11.443Z,100915.16
2019-04-16T20:11:41.827Z,100925.77
2019-04-16T20:14:12.229Z,100919.01
2019-04-16T20:16:42.688Z,100917.98
2019-04-16T20:19:14.799Z,100920.47
2019-04-16T20:21:45.239Z,100926.02
2019-04-16T20:24:17.245Z,100918.87
2019-04-16T20:26:47.641Z,100925.25
2019-04-16T20:29:18.242Z,100927.02
2019-04-16T20:31:51.275Z,100928.45
2019-04-16T20:34:22.283Z,100930.80
2019-04-16T20:36:55.775Z,100930.75
2019-04-16T20:39:26.487Z,100929.37
2019-04-16T20:41:59.387Z,100928.77
2019-04-16T20:44:31.103Z,100930.66
2019-04-16T20:47:07.747Z,100934.59
2019-04-16T20:49:36.293Z,100929.85
2019-04-16T20:52:09.134Z,100935.20
2019-04-16T20:54:44.227Z,100932.98
2019-04-16T20:57:13.778Z,100936.13
2019-04-16T20:59:49.942Z,100930.51
2019-04-16T21:02:21.162Z,100937.94
2019-04-16T21:04:52.200Z,100939.19
2019-04-16T21:07:23.458Z,100941.06
2019-04-16T21:09:55.637Z,100934.73
2019-04-16T21:12:26.086Z,100941.08
2019-04-16T21:14:57.424Z,100943.23
2019-04-16T21:17:30.685Z,100938.37
2019-04-16T21:20:02.465Z,100942.84
2019-04-16T21:22:33.095Z,100943.09
2019-04-16T21:25:12.952Z,100948.41
2019-04-16T21:28:00.067Z,100953.58
2019-04-16T21:30:32.134Z,100956.94
2019-04-16T21:33:08.040Z,100961.22
2019-04-16T21:35:41.124Z,100961.98
2019-04-16T21:38:20.088Z,100959.74
2019-04-16T21:40:57.446Z,100965.78
2019-04-16T21:43:29.784Z,100968.03
2019-04-16T21:46:00.334Z,100962.75
2019-04-16T21:48:30.941Z,100961.36
2019-04-16T21:51:01.792Z,100962.09
2019-04-16T21:53:32.820Z,100965.70
2019-04-16T21:56:08.163Z,100964.66
2019-04-16T21:58:36.934Z,100967.41
2019-04-16T22:01:19.539Z,100978.51
2019-04-16T22:03:54.635Z,100965.92
2019-04-16T22:06:25.039Z,100967.75
2019-04-16T22:08:55.878Z,100969.08
2019-04-16T22:11:27.010Z,100973.72
2019-04-16T22:13:57.607Z,100973.11
2019-04-16T22:16:29.888Z,100979.42
2019-04-16T22:19:01.755Z,100981.83
2019-04-16T22:21:32.244Z,100981.56
2019-04-16T22:24:02.604Z,100988.48
2019-04-16T22:26:35.284Z,100982.37
2019-04-16T22:29:06.057Z,100987.23
2019-04-16T22:31:36.892Z,100982.44
2019-04-16T22:34:07.397Z,100987.44
2019-04-16T22:36:37.993Z,100984.58
2019-04-16T22:39:22.224Z,100986.91
2019-04-16T22:41:58.515Z,100984.21
2019-04-16T22:44:46.983Z,100975.93
2019-04-16T22:47:22.458Z,100983.19
2019-04-16T22:49:56.727Z,100986.59
2019-04-16T22:52:25.167Z,100987.38
2019-04-16T22:54:56.453Z,100991.09
2019-04-16T22:57:26.982Z,100988.18
2019-04-16T23:00:00.393Z,100995.17
2019-04-16T23:02:34.997Z,100986.80
2019-04-16T23:05:06.418Z,100992.10
2019-04-16T23:07:40.370Z,100991.33
2019-04-16T23:10:11.050Z,100995.48
2019-04-16T23:12:41.604Z,101000.30
2019-04-16T23:15:14.079Z,100994.62
2019-04-16T23:17:46.022Z,100997.20
2019-04-16T23:20:28.446Z,100997.17
2019-04-16T23:22:48.860Z,100992.84
2019-04-16T23:25:19.345Z,100996.64
2019-04-16T23:27:49.909Z,100999.18
2019-04-16T23:30:20.371Z,100999.99
2019-04-16T23:32:50.876Z,100996.62
2019-04-16T23:35:24.896Z,101005.78
2019-04-16T23:37:58.339Z,100999.36
2019-04-16T23:40:25.642Z,101006.00
2019-04-16T23:42:59.827Z,101005.03
2019-04-16T23:45:45.358Z,100999.77
2019-04-16T23:48:53.540Z,101001.51
2019-04-16T23:51:32.279Z,101000.13
2019-04-16T23:54:14.120Z,101002.42
2019-04-16T23:57:03.531Z,101001.27
2019-04-16T23:59:42.373Z,100999.83
